createdAt,value
2023-03-02T00:01:10.733Z,3.40
2023-03-02T00:03:38.849Z,3.40
2023-03-02T00:06:06.272Z,3.40
2023-03-02T00:08:33.572Z,3.40
2023-03-02T00:11:01.380Z,3.40
2023-03-02T00:13:31.899Z,3.40
2023-03-02T00:15:59.241Z,3.40
2023-03-02T00:18:26.560Z,3.40
2023-03-02T00:20:53.903Z,3.30
2023-03-02T00:23:21.254Z,3.30
2023-03-02T00:25:48.583Z,3.30
2023-03-02T00:28:15.887Z,3.30
2023-03-02T00:30:43.220Z,3.30
2023-03-02T00:33:10.631Z,3.30
2023-03-02T00:35:41.242Z,3.30
2023-03-02T00:38:09.022Z,3.20
2023-03-02T00:40:36.454Z,3.20
2023-03-02T00:43:03.956Z,3.20
2023-03-02T00:45:31.383Z,3.20
2023-03-02T00:47:58.934Z,3.20
2023-03-02T00:50:26.368Z,3.20
2023-03-02T00:52:53.789Z,3.20
2023-03-02T00:55:21.101Z,3.20
2023-03-02T00:57:55.167Z,3.20
2023-03-02T01:00:28.622Z,3.20
2023-03-02T01:02:59.111Z,3.20
2023-03-02T01:05:26.731Z,3.20
2023-03-02T01:07:54.147Z,3.20
2023-03-02T01:10:21.479Z,3.20
2023-03-02T01:12:48.810Z,3.20
2023-03-02T01:15:16.159Z,3.20
2023-03-02T01:17:43.996Z,3.20
2023-03-02T01:20:12.193Z,3.20
2023-03-02T01:22:39.524Z,3.20
2023-03-02T01:25:07.316Z,3.10
2023-03-02T01:27:34.608Z,3.10
2023-03-02T01:30:01.955Z,3.10
2023-03-02T01:32:30.937Z,3.10
2023-03-02T01:34:58.295Z,3.10
2023-03-02T01:37:26.043Z,3.10
2023-03-02T01:39:53.419Z,3.10
2023-03-02T01:42:20.755Z,3.00
2023-03-02T01:44:50.170Z,3.00
2023-03-02T01:47:22.070Z,3.00
2023-03-02T01:49:58.908Z,3.00
2023-03-02T01:52:27.826Z,3.00
2023-03-02T01:54:56.550Z,3.00
2023-03-02T01:57:29.450Z,3.00
2023-03-02T02:00:00.166Z,2.90
2023-03-02T02:02:27.556Z,2.90
2023-03-02T02:04:55.016Z,2.90
2023-03-02T02:07:22.489Z,2.80
2023-03-02T02:09:50.996Z,2.80
2023-03-02T02:12:20.352Z,2.80
2023-03-02T02:14:48.033Z,2.80
2023-03-02T02:17:15.584Z,2.80
2023-03-02T02:19:48.663Z,2.80
2023-03-02T02:22:17.421Z,2.80
2023-03-02T02:24:48.715Z,2.70
2023-03-02T02:27:16.105Z,2.70
2023-03-02T02:29:46.238Z,2.70
2023-03-02T02:32:19.916Z,2.70
2023-03-02T02:34:53.591Z,2.60
2023-03-02T02:37:34.060Z,2.60
2023-03-02T02:40:07.252Z,2.60
2023-03-02T02:42:42.078Z,2.60
2023-03-02T02:45:27.625Z,2.60
2023-03-02T02:47:55.344Z,2.70
2023-03-02T02:50:30.198Z,2.70
2023-03-02T02:53:05.762Z,2.70
2023-03-02T02:55:33.949Z,2.60
2023-03-02T02:58:02.590Z,2.60
2023-03-02T03:00:29.911Z,2.60
2023-03-02T03:03:29.337Z,2.60
2023-03-02T03:06:00.309Z,2.60
2023-03-02T03:08:46.107Z,2.60
2023-03-02T03:11:27.624Z,2.60
2023-03-02T03:14:00.129Z,2.60
2023-03-02T03:16:28.804Z,2.60
2023-03-02T03:18:57.643Z,2.60
2023-03-02T03:21:25.437Z,2.60
2023-03-02T03:23:53.694Z,2.60
2023-03-02T03:26:21.220Z,2.50
2023-03-02T03:28:48.756Z,2.50
2023-03-02T03:31:16.520Z,2.50
2023-03-02T03:33:44.181Z,2.60
2023-03-02T03:36:11.690Z,2.60
2023-03-02T03:38:39.213Z,2.60
2023-03-02T03:41:06.596Z,2.50
2023-03-02T03:43:34.785Z,2.50
2023-03-02T03:46:02.194Z,2.50
2023-03-02T03:48:29.511Z,2.50
2023-03-02T03:50:59.519Z,2.50
2023-03-02T03:53:27.476Z,2.50
2023-03-02T03:55:56.935Z,2.60
2023-03-02T03:58:25.149Z,2.60
2023-03-02T04:00:52.991Z,2.50
2023-03-02T04:03:21.382Z,2.50
2023-03-02T04:05:48.881Z,2.50
2023-03-02T04:08:16.346Z,2.50
2023-03-02T04:10:43.757Z,2.50
2023-03-02T04:13:11.646Z,2.60
2023-03-02T04:15:41.698Z,2.60
2023-03-02T04:18:09.208Z,2.60
2023-03-02T04:20:37.144Z,2.60
2023-03-02T04:23:05.262Z,2.60
2023-03-02T04:25:32.580Z,2.60
2023-03-02T04:28:08.559Z,2.50
2023-03-02T04:30:38.569Z,2.50
2023-03-02T04:33:06.097Z,2.50
2023-03-02T04:35:34.965Z,2.60
2023-03-02T04:38:03.066Z,2.50
2023-03-02T04:40:30.463Z,2.50
2023-03-02T04:42:57.719Z,2.50
2023-03-02T04:45:25.027Z,2.50
2023-03-02T04:47:52.305Z,2.50
2023-03-02T04:50:19.644Z,2.50
2023-03-02T04:52:47.150Z,2.40
2023-03-02T04:55:20.075Z,2.40
2023-03-02T04:57:47.436Z,2.40
2023-03-02T05:00:16.551Z,2.40
2023-03-02T05:02:44.133Z,2.30
2023-03-02T05:05:22.764Z,2.30
2023-03-02T05:07:50.763Z,2.30
2023-03-02T05:10:18.778Z,2.40
2023-03-02T05:12:55.786Z,2.40
2023-03-02T05:15:30.622Z,2.40
2023-03-02T05:17:58.053Z,2.30
2023-03-02T05:20:27.579Z,2.30
2023-03-02T05:22:55.956Z,2.30
2023-03-02T05:25:23.532Z,2.30
2023-03-02T05:27:51.008Z,2.30
2023-03-02T05:30:18.600Z,2.40
2023-03-02T05:32:46.189Z,2.30
2023-03-02T05:35:14.265Z,2.30
2023-03-02T05:37:44.543Z,2.30
2023-03-02T05:40:13.760Z,2.30
2023-03-02T05:42:42.198Z,2.40
2023-03-02T05:45:13.704Z,2.40
2023-03-02T05:47:40.979Z,2.40
2023-03-02T05:50:08.759Z,2.40
2023-03-02T05:52:36.094Z,2.40
2023-03-02T05:55:03.526Z,2.40
2023-03-02T05:57:30.905Z,2.40
2023-03-02T05:59:58.639Z,2.40
2023-03-02T06:02:26.088Z,2.30
2023-03-02T06:04:53.435Z,2.40
2023-03-02T06:07:20.735Z,2.40
2023-03-02T06:09:48.376Z,2.40
2023-03-02T06:12:15.773Z,2.40
2023-03-02T06:14:43.142Z,2.50
2023-03-02T06:17:10.629Z,2.50
2023-03-02T06:19:37.929Z,2.50
2023-03-02T06:22:05.302Z,2.60
2023-03-02T06:24:32.884Z,2.60
2023-03-02T06:27:00.402Z,2.60
2023-03-02T06:29:27.694Z,2.70
2023-03-02T06:31:55.210Z,2.70
2023-03-02T06:34:23.083Z,2.70
2023-03-02T06:36:50.906Z,2.80
2023-03-02T06:39:18.309Z,2.80
2023-03-02T06:41:46.486Z,2.80
2023-03-02T06:44:14.343Z,2.80
2023-03-02T06:46:42.184Z,2.90
2023-03-02T06:49:09.794Z,2.90
2023-03-02T06:51:37.449Z,3.00
2023-03-02T06:54:06.929Z,3.00
2023-03-02T06:56:34.955Z,3.00
2023-03-02T06:59:02.485Z,3.10
2023-03-02T07:01:35.907Z,3.10
2023-03-02T07:04:03.796Z,3.10
2023-03-02T07:06:31.327Z,3.10
2023-03-02T07:08:58.590Z,3.10
2023-03-02T07:11:25.886Z,3.20
2023-03-02T07:13:53.239Z,3.20
2023-03-02T07:16:20.612Z,3.20
2023-03-02T07:18:48.014Z,3.30
2023-03-02T07:21:15.362Z,3.20
2023-03-02T07:23:42.925Z,3.30
2023-03-02T07:26:10.298Z,3.30
2023-03-02T07:28:41.891Z,3.30
2023-03-02T07:31:09.539Z,3.40
2023-03-02T07:33:37.528Z,3.40
2023-03-02T07:36:05.931Z,3.40
2023-03-02T07:38:33.500Z,3.50
2023-03-02T07:41:00.817Z,3.50
2023-03-02T07:43:29.331Z,3.60
2023-03-02T07:45:59.707Z,3.60
2023-03-02T07:48:27.202Z,3.60
2023-03-02T07:51:00.948Z,3.70
2023-03-02T07:53:28.563Z,3.80
2023-03-02T07:55:55.916Z,3.80
2023-03-02T07:58:24.197Z,3.80
2023-03-02T08:00:51.510Z,3.90
2023-03-02T08:03:18.834Z,3.90
2023-03-02T08:05:46.160Z,3.90
2023-03-02T08:08:13.527Z,4.00
2023-03-02T08:10:41.295Z,4.00
2023-03-02T08:13:10.944Z,4.00
2023-03-02T08:15:38.382Z,4.10
2023-03-02T08:18:05.773Z,4.20
2023-03-02T08:20:33.088Z,4.20
2023-03-02T08:23:00.412Z,4.30
2023-03-02T08:25:27.707Z,4.30
2023-03-02T08:27:55.083Z,4.40
2023-03-02T08:30:22.436Z,4.50
2023-03-02T08:32:49.931Z,4.60
2023-03-02T08:35:17.492Z,4.60
2023-03-02T08:37:44.811Z,4.60
2023-03-02T08:40:12.508Z,4.70
2023-03-02T08:42:39.880Z,4.70
2023-03-02T08:45:07.806Z,4.70
2023-03-02T08:47:35.132Z,4.70
2023-03-02T08:50:02.523Z,4.70
2023-03-02T08:52:29.809Z,4.70
2023-03-02T08:54:57.121Z,4.70
2023-03-02T08:57:24.495Z,4.80
2023-03-02T08:59:52.660Z,4.90
2023-03-02T09:02:19.995Z,4.90
2023-03-02T09:04:47.441Z,5.00
2023-03-02T09:07:17.421Z,5.10
2023-03-02T09:09:44.857Z,5.10
2023-03-02T09:12:12.252Z,5.20
2023-03-02T09:14:39.544Z,5.30
2023-03-02T09:17:06.998Z,5.40
2023-03-02T09:19:43.981Z,5.50
2023-03-02T09:22:11.949Z,5.50
2023-03-02T09:24:39.275Z,5.60
2023-03-02T09:27:06.691Z,5.70
2023-03-02T09:29:33.999Z,5.70
2023-03-02T09:32:01.487Z,5.80
2023-03-02T09:34:29.470Z,6.00
2023-03-02T09:36:56.845Z,6.00
2023-03-02T09:39:24.194Z,6.10
2023-03-02T09:42:13.621Z,6.10
2023-03-02T09:44:43.799Z,6.20
2023-03-02T09:47:37.754Z,6.20
2023-03-02T09:50:15.049Z,6.30
2023-03-02T09:53:07.639Z,6.30
2023-03-02T09:55:36.162Z,6.40
2023-03-02T09:58:08.951Z,6.50
2023-03-02T10:00:37.126Z,6.50
2023-03-02T10:03:39.191Z,6.60
2023-03-02T10:06:06.616Z,6.70
2023-03-02T10:08:35.029Z,6.80
2023-03-02T10:11:12.739Z,6.80
2023-03-02T10:13:58.438Z,6.80
2023-03-02T10:16:38.138Z,6.80
2023-03-02T10:19:47.975Z,6.80
2023-03-02T10:22:50.894Z,6.80
2023-03-02T10:25:35.963Z,6.90
2023-03-02T10:28:17.660Z,7.00
2023-03-02T10:30:45.788Z,7.10
2023-03-02T10:33:19.939Z,7.10
2023-03-02T10:35:51.941Z,7.20
2023-03-02T10:38:24.205Z,7.30
2023-03-02T10:41:02.351Z,7.30
2023-03-02T10:43:39.626Z,7.30
2023-03-02T10:46:08.660Z,7.30
2023-03-02T10:48:49.856Z,7.40
2023-03-02T10:51:35.293Z,7.40
2023-03-02T10:54:13.303Z,7.50
2023-03-02T10:56:47.408Z,7.70
2023-03-02T10:59:27.101Z,7.80
2023-03-02T11:02:02.744Z,8.00
2023-03-02T11:04:30.827Z,8.10
2023-03-02T11:07:08.929Z,8.20
2023-03-02T11:09:36.301Z,8.30
2023-03-02T11:12:03.820Z,8.50
2023-03-02T11:14:31.194Z,8.60
2023-03-02T11:16:58.568Z,8.60
2023-03-02T11:19:35.168Z,8.70
2023-03-02T11:22:30.642Z,8.80
2023-03-02T11:24:58.430Z,8.90
2023-03-02T11:27:28.066Z,8.90
2023-03-02T11:30:01.265Z,9.00
2023-03-02T11:32:53.663Z,9.10
2023-03-02T11:35:34.243Z,9.10
2023-03-02T11:38:13.470Z,9.30
2023-03-02T11:40:54.216Z,9.40
2023-03-02T11:43:21.567Z,9.40
2023-03-02T11:45:59.761Z,9.50
2023-03-02T11:48:34.470Z,9.60
2023-03-02T11:51:06.942Z,9.70
2023-03-02T11:53:41.730Z,9.70
2023-03-02T11:56:09.103Z,9.80
2023-03-02T11:58:36.411Z,10.00
2023-03-02T12:01:03.836Z,10.10
2023-03-02T12:03:31.205Z,10.10
2023-03-02T12:06:15.026Z,10.20
2023-03-02T12:08:43.931Z,10.20
2023-03-02T12:11:17.604Z,10.40
2023-03-02T12:13:46.411Z,10.40
2023-03-02T12:16:34.253Z,10.50
2023-03-02T12:19:17.977Z,10.70
2023-03-02T12:22:02.808Z,10.80
2023-03-02T12:24:34.684Z,10.90
2023-03-02T12:27:07.563Z,10.90
2023-03-02T12:29:42.416Z,11.00
2023-03-02T12:32:30.568Z,11.00
2023-03-02T12:35:00.687Z,11.10
2023-03-02T12:37:33.641Z,11.20
2023-03-02T12:40:15.438Z,11.40
2023-03-02T12:43:16.941Z,11.50
2023-03-02T12:45:52.998Z,11.50
2023-03-02T12:48:37.299Z,11.50
2023-03-02T12:51:05.225Z,11.50
2023-03-02T12:53:32.679Z,11.60
2023-03-02T12:56:00.626Z,11.70
2023-03-02T12:58:28.716Z,11.80
2023-03-02T13:00:58.519Z,11.80
2023-03-02T13:03:27.028Z,11.80
2023-03-02T13:06:04.973Z,11.80
2023-03-02T13:08:32.495Z,11.80
2023-03-02T13:11:01.468Z,11.90
2023-03-02T13:13:35.592Z,12.00
2023-03-02T13:16:05.400Z,12.10
2023-03-02T13:18:39.241Z,12.20
2023-03-02T13:21:06.570Z,12.10
2023-03-02T13:23:34.145Z,12.20
2023-03-02T13:26:02.908Z,12.20
2023-03-02T13:28:34.538Z,12.20
2023-03-02T13:31:18.110Z,12.20
2023-03-02T13:33:46.370Z,12.20
2023-03-02T13:36:30.933Z,12.30
2023-03-02T13:38:59.354Z,12.40
2023-03-02T13:41:31.358Z,12.40
2023-03-02T13:43:59.239Z,12.50
2023-03-02T13:46:36.697Z,12.50
2023-03-02T13:49:11.026Z,12.40
2023-03-02T13:51:43.813Z,12.40
2023-03-02T13:54:22.199Z,12.40
2023-03-02T13:56:51.198Z,12.50
2023-03-02T13:59:19.260Z,12.50
2023-03-02T14:01:46.706Z,12.60
2023-03-02T14:04:15.158Z,12.60
2023-03-02T14:06:42.678Z,12.60
2023-03-02T14:09:10.205Z,12.60
2023-03-02T14:11:39.078Z,12.60
2023-03-02T14:14:06.460Z,12.70
2023-03-02T14:16:37.121Z,12.70
2023-03-02T14:19:04.449Z,12.70
2023-03-02T14:21:32.394Z,12.80
2023-03-02T14:23:59.989Z,12.70
2023-03-02T14:26:46.370Z,12.70
2023-03-02T14:29:29.147Z,12.70
2023-03-02T14:31:57.687Z,12.80
2023-03-02T14:34:25.046Z,12.90
2023-03-02T14:36:54.078Z,12.90
2023-03-02T14:39:37.068Z,12.90
2023-03-02T14:42:05.727Z,12.90
2023-03-02T14:44:33.166Z,12.80
2023-03-02T14:47:00.494Z,12.70
2023-03-02T14:49:27.824Z,12.70
2023-03-02T14:51:58.705Z,12.60
2023-03-02T14:54:26.167Z,12.50
2023-03-02T14:56:53.593Z,12.40
2023-03-02T14:59:21.000Z,12.20
2023-03-02T15:01:48.405Z,12.10
2023-03-02T15:04:15.930Z,12.00
2023-03-02T15:06:43.385Z,11.90
2023-03-02T15:09:11.342Z,11.80
2023-03-02T15:11:38.763Z,11.70
2023-03-02T15:14:06.165Z,11.70
2023-03-02T15:16:33.562Z,11.70
2023-03-02T15:19:01.444Z,11.70
2023-03-02T15:21:29.085Z,11.70
2023-03-02T15:23:56.462Z,11.60
2023-03-02T15:26:23.863Z,11.50
2023-03-02T15:28:51.786Z,11.40
2023-03-02T15:31:19.333Z,11.40
2023-03-02T15:33:46.890Z,11.20
2023-03-02T15:36:14.512Z,11.00
2023-03-02T15:38:41.881Z,10.90
2023-03-02T15:41:12.311Z,10.80
2023-03-02T15:43:39.730Z,10.70
2023-03-02T15:46:09.242Z,10.60
2023-03-02T15:48:36.996Z,10.50
2023-03-02T15:51:05.958Z,10.40
2023-03-02T15:53:36.772Z,10.20
2023-03-02T15:56:06.685Z,10.10
2023-03-02T15:58:34.699Z,10.10
2023-03-02T16:01:10.006Z,10.10
2023-03-02T16:03:38.046Z,10.00
2023-03-02T16:06:05.702Z,9.90
2023-03-02T16:08:33.010Z,9.80
2023-03-02T16:11:01.922Z,9.80
2023-03-02T16:13:30.419Z,9.70
2023-03-02T16:16:00.236Z,9.60
2023-03-02T16:18:27.563Z,9.50
2023-03-02T16:20:55.112Z,9.40
2023-03-02T16:23:22.538Z,9.30
2023-03-02T16:25:50.189Z,9.20
2023-03-02T16:28:18.065Z,9.20
2023-03-02T16:30:45.658Z,9.00
2023-03-02T16:33:15.321Z,8.90
2023-03-02T16:35:42.769Z,8.90
2023-03-02T16:38:10.295Z,8.80
2023-03-02T16:40:40.044Z,8.80
2023-03-02T16:43:09.012Z,8.70
2023-03-02T16:45:36.519Z,8.60
2023-03-02T16:48:04.830Z,8.50
2023-03-02T16:50:32.569Z,8.40
2023-03-02T16:52:59.938Z,8.30
2023-03-02T16:55:27.462Z,8.20
2023-03-02T16:57:54.911Z,8.10
2023-03-02T17:00:22.983Z,8.00
2023-03-02T17:02:50.663Z,7.90
2023-03-02T17:05:18.964Z,7.90
2023-03-02T17:07:46.533Z,7.90
2023-03-02T17:10:16.083Z,7.80
2023-03-02T17:12:43.468Z,7.80
2023-03-02T17:15:14.375Z,7.70
2023-03-02T17:17:41.807Z,7.60
2023-03-02T17:20:11.222Z,7.50
2023-03-02T17:22:38.910Z,7.30
2023-03-02T17:25:06.525Z,7.20
2023-03-02T17:27:33.902Z,7.10
2023-03-02T17:30:01.326Z,7.10
2023-03-02T17:32:28.836Z,7.00
2023-03-02T17:34:56.209Z,6.80
2023-03-02T17:37:25.751Z,6.70
2023-03-02T17:39:53.211Z,6.60
2023-03-02T17:42:20.611Z,6.60
2023-03-02T17:44:47.921Z,6.50
2023-03-02T17:47:16.294Z,6.50
2023-03-02T17:49:45.265Z,6.40
2023-03-02T17:52:13.616Z,6.30
2023-03-02T17:54:41.220Z,6.30
2023-03-02T17:57:08.857Z,6.20
2023-03-02T17:59:36.272Z,6.10
2023-03-02T18:02:03.716Z,6.10
2023-03-02T18:04:31.045Z,6.10
2023-03-02T18:06:58.748Z,6.10
2023-03-02T18:09:26.128Z,6.10
2023-03-02T18:11:53.622Z,6.00
2023-03-02T18:14:21.042Z,6.00
2023-03-02T18:16:48.443Z,6.00
2023-03-02T18:19:15.820Z,6.00
2023-03-02T18:21:43.216Z,6.00
2023-03-02T18:24:10.595Z,5.90
2023-03-02T18:26:38.071Z,5.80
2023-03-02T18:29:05.634Z,5.80
2023-03-02T18:31:34.250Z,5.70
2023-03-02T18:34:02.602Z,5.70
2023-03-02T18:36:30.095Z,5.70
2023-03-02T18:38:57.498Z,5.70
2023-03-02T18:41:24.874Z,5.70
2023-03-02T18:43:52.287Z,5.70
2023-03-02T18:46:23.466Z,5.60
2023-03-02T18:48:51.296Z,5.60
2023-03-02T18:51:19.379Z,5.50
2023-03-02T18:53:47.026Z,5.50
2023-03-02T18:56:14.364Z,5.40
2023-03-02T18:58:41.797Z,5.40
2023-03-02T19:01:09.301Z,5.40
2023-03-02T19:03:38.612Z,5.40
2023-03-02T19:06:07.294Z,5.30
2023-03-02T19:08:35.508Z,5.30
2023-03-02T19:11:03.230Z,5.30
2023-03-02T19:13:30.737Z,5.30
2023-03-02T19:15:58.097Z,5.20
2023-03-02T19:18:25.775Z,5.20
2023-03-02T19:20:54.375Z,5.10
2023-03-02T19:23:21.852Z,5.10
2023-03-02T19:25:49.362Z,5.10
2023-03-02T19:28:16.818Z,5.20
2023-03-02T19:30:44.153Z,5.10
2023-03-02T19:33:11.535Z,5.10
2023-03-02T19:35:39.125Z,5.10
2023-03-02T19:38:07.135Z,5.00
2023-03-02T19:40:34.664Z,5.00
2023-03-02T19:43:02.218Z,4.90
2023-03-02T19:45:32.419Z,4.80
2023-03-02T19:48:00.164Z,4.80
2023-03-02T19:50:28.310Z,4.70
2023-03-02T19:52:56.296Z,4.70
2023-03-02T19:55:24.296Z,4.70
2023-03-02T19:57:56.624Z,4.60
2023-03-02T20:00:24.380Z,4.60
2023-03-02T20:02:51.732Z,4.60
2023-03-02T20:05:19.159Z,4.60
2023-03-02T20:07:46.498Z,4.60
2023-03-02T20:10:31.100Z,4.70
2023-03-02T20:12:59.732Z,4.70
2023-03-02T20:15:28.303Z,4.60
2023-03-02T20:17:55.719Z,4.60
2023-03-02T20:20:24.751Z,4.60
2023-03-02T20:22:52.217Z,4.50
2023-03-02T20:25:20.315Z,4.40
2023-03-02T20:27:51.907Z,4.40
2023-03-02T20:30:28.675Z,4.40
2023-03-02T20:32:56.468Z,4.40
2023-03-02T20:35:24.009Z,4.40
2023-03-02T20:37:52.366Z,4.40
2023-03-02T20:40:20.302Z,4.40
2023-03-02T20:42:47.670Z,4.40
2023-03-02T20:45:15.103Z,4.40
2023-03-02T20:47:42.575Z,4.30
2023-03-02T20:50:11.227Z,4.30
2023-03-02T20:52:38.595Z,4.30
2023-03-02T20:55:06.536Z,4.30
2023-03-02T20:57:33.979Z,4.30
2023-03-02T21:00:01.425Z,4.20
2023-03-02T21:02:28.822Z,4.20
2023-03-02T21:04:56.247Z,4.20
2023-03-02T21:07:23.836Z,4.20
2023-03-02T21:09:51.238Z,4.20
2023-03-02T21:12:18.791Z,4.20
2023-03-02T21:14:46.196Z,4.20
2023-03-02T21:17:13.552Z,4.10
2023-03-02T21:19:40.865Z,4.10
2023-03-02T21:22:08.190Z,4.10
2023-03-02T21:24:35.603Z,4.10
2023-03-02T21:27:02.983Z,4.00
2023-03-02T21:29:30.675Z,4.10
2023-03-02T21:31:58.219Z,4.10
2023-03-02T21:34:25.581Z,4.10
2023-03-02T21:36:53.774Z,4.00
2023-03-02T21:39:23.560Z,4.00
2023-03-02T21:41:51.273Z,4.10
2023-03-02T21:44:19.050Z,4.10
2023-03-02T21:46:46.595Z,4.10
2023-03-02T21:49:18.240Z,4.10
2023-03-02T21:51:47.111Z,4.10
2023-03-02T21:54:16.122Z,4.00
2023-03-02T21:56:43.690Z,3.90
2023-03-02T21:59:11.118Z,3.90
2023-03-02T22:01:38.667Z,3.90
2023-03-02T22:04:06.038Z,3.90
2023-03-02T22:06:33.975Z,3.90
2023-03-02T22:09:01.671Z,3.90
2023-03-02T22:11:31.163Z,3.90
2023-03-02T22:14:00.571Z,3.90
2023-03-02T22:16:33.191Z,3.90
2023-03-02T22:19:00.681Z,3.90
2023-03-02T22:21:38.133Z,3.90
2023-03-02T22:24:08.592Z,3.80
2023-03-02T22:26:37.982Z,3.80
2023-03-02T22:29:12.970Z,3.80
2023-03-02T22:31:46.229Z,3.80
2023-03-02T22:34:15.572Z,3.80
2023-03-02T22:36:44.220Z,3.70
2023-03-02T22:39:15.515Z,3.70
2023-03-02T22:41:42.914Z,3.60
2023-03-02T22:44:11.726Z,3.60
2023-03-02T22:46:39.880Z,3.60
2023-03-02T22:49:16.895Z,3.60
2023-03-02T22:51:44.973Z,3.60
2023-03-02T22:54:27.228Z,3.60
2023-03-02T22:56:56.966Z,3.60
2023-03-02T22:59:25.888Z,3.60
2023-03-02T23:01:54.182Z,3.50
2023-03-02T23:04:27.257Z,3.50
2023-03-02T23:07:02.673Z,3.50
2023-03-02T23:09:32.009Z,3.40
2023-03-02T23:12:01.807Z,3.40
2023-03-02T23:14:39.367Z,3.40
2023-03-02T23:17:14.155Z,3.40
2023-03-02T23:19:41.635Z,3.40
2023-03-02T23:22:09.024Z,3.40
2023-03-02T23:24:36.810Z,3.40
2023-03-02T23:27:04.320Z,3.30
2023-03-02T23:29:32.180Z,3.30
2023-03-02T23:31:59.788Z,3.30
2023-03-02T23:34:31.005Z,3.20
2023-03-02T23:36:59.037Z,3.20
2023-03-02T23:39:26.574Z,3.20
2023-03-02T23:41:54.068Z,3.20
2023-03-02T23:44:21.497Z,3.20
2023-03-02T23:46:49.300Z,3.20
2023-03-02T23:49:16.885Z,3.20
2023-03-02T23:51:44.631Z,3.20
2023-03-02T23:54:12.062Z,3.20
2023-03-02T23:56:39.554Z,3.30
2023-03-02T23:59:06.903Z,3.30
